sensor_id;sensor_type;location;lat;lon;timestamp;temperature;humidity
1277;DHT22;631;51.024;13.826;2023-01-19T00:00:27;-0.80;99.90
1277;DHT22;631;51.024;13.826;2023-01-19T00:02:53;-0.80;99.90
1277;DHT22;631;51.024;13.826;2023-01-19T00:05:19;-0.80;99.90
1277;DHT22;631;51.024;13.826;2023-01-19T00:07:45;-0.90;99.90
1277;DHT22;631;51.024;13.826;2023-01-19T00:10:11;-0.90;99.90
1277;DHT22;631;51.024;13.826;2023-01-19T00:12:37;-1.00;99.90
1277;DHT22;631;51.024;13.826;2023-01-19T00:15:03;-1.00;99.90
1277;DHT22;631;51.024;13.826;2023-01-19T00:17:28;-1.00;99.90
1277;DHT22;631;51.024;13.826;2023-01-19T00:19:54;-1.00;99.90
1277;DHT22;631;51.024;13.826;2023-01-19T00:22:20;-1.00;99.90
1277;DHT22;631;51.024;13.826;2023-01-19T00:24:45;-1.10;99.90
1277;DHT22;631;51.024;13.826;2023-01-19T00:27:11;-1.10;99.90
1277;DHT22;631;51.024;13.826;2023-01-19T00:29:36;-1.10;99.90
1277;DHT22;631;51.024;13.826;2023-01-19T00:32:03;-1.10;99.90
1277;DHT22;631;51.024;13.826;2023-01-19T00:34:29;-1.10;99.90
1277;DHT22;631;51.024;13.826;2023-01-19T00:37:04;-1.20;99.90
1277;DHT22;631;51.024;13.826;2023-01-19T00:39:30;-1.20;99.90
1277;DHT22;631;51.024;13.826;2023-01-19T00:41:56;-1.20;99.90
1277;DHT22;631;51.024;13.826;2023-01-19T00:44:40;-1.20;99.90
1277;DHT22;631;51.024;13.826;2023-01-19T00:47:05;-1.30;99.90
1277;DHT22;631;51.024;13.826;2023-01-19T00:49:31;-1.30;99.90
1277;DHT22;631;51.024;13.826;2023-01-19T00:51:57;-1.40;99.90
1277;DHT22;631;51.024;13.826;2023-01-19T00:54:22;-1.40;99.90
1277;DHT22;631;51.024;13.826;2023-01-19T00:56:48;-1.50;99.90
1277;DHT22;631;51.024;13.826;2023-01-19T00:59:13;-1.40;99.90
1277;DHT22;631;51.024;13.826;2023-01-19T01:01:39;-1.50;99.90
1277;DHT22;631;51.024;13.826;2023-01-19T01:04:05;-1.60;99.90
1277;DHT22;631;51.024;13.826;2023-01-19T01:06:30;-1.60;99.90
1277;DHT22;631;51.024;13.826;2023-01-19T01:08:56;-1.60;99.90
1277;DHT22;631;51.024;13.826;2023-01-19T01:11:21;-1.60;99.90
1277;DHT22;631;51.024;13.826;2023-01-19T01:13:47;-1.60;99.90
1277;DHT22;631;51.024;13.826;2023-01-19T01:16:16;-1.70;99.90
1277;DHT22;631;51.024;13.826;2023-01-19T01:18:42;-1.70;99.90
1277;DHT22;631;51.024;13.826;2023-01-19T01:21:09;-1.80;99.90
1277;DHT22;631;51.024;13.826;2023-01-19T01:23:37;-1.80;99.90
1277;DHT22;631;51.024;13.826;2023-01-19T01:26:02;-1.80;99.90
1277;DHT22;631;51.024;13.826;2023-01-19T01:28:28;-1.80;99.90
1277;DHT22;631;51.024;13.826;2023-01-19T01:30:56;-1.90;99.90
1277;DHT22;631;51.024;13.826;2023-01-19T01:33:22;-1.90;99.90
1277;DHT22;631;51.024;13.826;2023-01-19T01:35:49;-1.90;99.90
1277;DHT22;631;51.024;13.826;2023-01-19T01:38:16;-1.90;99.90
1277;DHT22;631;51.024;13.826;2023-01-19T01:40:42;-1.90;99.90
1277;DHT22;631;51.024;13.826;2023-01-19T01:43:12;-2.00;99.90
1277;DHT22;631;51.024;13.826;2023-01-19T01:45:39;-2.00;99.90
1277;DHT22;631;51.024;13.826;2023-01-19T01:50:40;-2.10;99.90
1277;DHT22;631;51.024;13.826;2023-01-19T01:53:30;-2.10;99.90
1277;DHT22;631;51.024;13.826;2023-01-19T01:55:57;-2.20;99.90
1277;DHT22;631;51.024;13.826;2023-01-19T01:58:23;-2.20;99.90
1277;DHT22;631;51.024;13.826;2023-01-19T02:00:49;-2.20;99.90
1277;DHT22;631;51.024;13.826;2023-01-19T02:03:34;-2.20;99.90
1277;DHT22;631;51.024;13.826;2023-01-19T02:06:02;-2.20;99.90
1277;DHT22;631;51.024;13.826;2023-01-19T02:08:42;-2.20;99.90
1277;DHT22;631;51.024;13.826;2023-01-19T02:11:29;-2.20;99.90
1277;DHT22;631;51.024;13.826;2023-01-19T02:14:13;-2.20;99.90
1277;DHT22;631;51.024;13.826;2023-01-19T02:16:39;-2.20;99.90
1277;DHT22;631;51.024;13.826;2023-01-19T02:19:08;-2.20;99.90
1277;DHT22;631;51.024;13.826;2023-01-19T02:24:34;-2.30;99.90
1277;DHT22;631;51.024;13.826;2023-01-19T02:27:00;-2.40;99.90
1277;DHT22;631;51.024;13.826;2023-01-19T02:29:27;-2.40;99.90
1277;DHT22;631;51.024;13.826;2023-01-19T02:31:53;-2.50;99.90
1277;DHT22;631;51.024;13.826;2023-01-19T02:34:20;-2.50;99.90
1277;DHT22;631;51.024;13.826;2023-01-19T02:36:58;-2.50;99.90
1277;DHT22;631;51.024;13.826;2023-01-19T02:39:28;-2.60;99.90
1277;DHT22;631;51.024;13.826;2023-01-19T02:42:00;-2.60;99.90
1277;DHT22;631;51.024;13.826;2023-01-19T02:44:29;-2.60;99.90
1277;DHT22;631;51.024;13.826;2023-01-19T02:46:55;-2.70;99.90
1277;DHT22;631;51.024;13.826;2023-01-19T02:49:22;-2.70;99.90
1277;DHT22;631;51.024;13.826;2023-01-19T02:51:47;-2.70;99.90
1277;DHT22;631;51.024;13.826;2023-01-19T02:54:35;-2.70;99.90
1277;DHT22;631;51.024;13.826;2023-01-19T02:57:34;-2.80;99.90
1277;DHT22;631;51.024;13.826;2023-01-19T03:05:31;-2.90;99.90
1277;DHT22;631;51.024;13.826;2023-01-19T03:08:21;-2.90;99.90
1277;DHT22;631;51.024;13.826;2023-01-19T03:11:03;-2.90;99.90
1277;DHT22;631;51.024;13.826;2023-01-19T03:18:51;-3.00;99.90
1277;DHT22;631;51.024;13.826;2023-01-19T03:21:22;-2.90;99.90
1277;DHT22;631;51.024;13.826;2023-01-19T03:23:50;-2.90;99.90
1277;DHT22;631;51.024;13.826;2023-01-19T03:26:24;-2.90;99.90
1277;DHT22;631;51.024;13.826;2023-01-19T03:28:52;-2.90;99.90
1277;DHT22;631;51.024;13.826;2023-01-19T03:31:23;-2.80;99.90
1277;DHT22;631;51.024;13.826;2023-01-19T03:33:54;-2.70;99.90
1277;DHT22;631;51.024;13.826;2023-01-19T03:36:39;-2.70;99.90
1277;DHT22;631;51.024;13.826;2023-01-19T03:39:08;-2.70;99.90
1277;DHT22;631;51.024;13.826;2023-01-19T03:41:35;-2.80;99.90
1277;DHT22;631;51.024;13.826;2023-01-19T03:44:04;-2.80;99.90
1277;DHT22;631;51.024;13.826;2023-01-19T03:46:31;-2.90;99.90
1277;DHT22;631;51.024;13.826;2023-01-19T03:48:58;-2.90;99.90
1277;DHT22;631;51.024;13.826;2023-01-19T03:51:24;-2.90;99.90
1277;DHT22;631;51.024;13.826;2023-01-19T03:53:50;-2.90;99.90
1277;DHT22;631;51.024;13.826;2023-01-19T03:58:43;-3.00;99.90
1277;DHT22;631;51.024;13.826;2023-01-19T04:01:09;-3.10;99.90
1277;DHT22;631;51.024;13.826;2023-01-19T04:03:34;-3.10;99.90
1277;DHT22;631;51.024;13.826;2023-01-19T04:06:00;-3.10;99.90
1277;DHT22;631;51.024;13.826;2023-01-19T04:08:25;-3.10;99.90
1277;DHT22;631;51.024;13.826;2023-01-19T04:10:51;-3.20;99.90
1277;DHT22;631;51.024;13.826;2023-01-19T04:13:16;-3.20;99.90
1277;DHT22;631;51.024;13.826;2023-01-19T04:15:42;-3.20;99.90
1277;DHT22;631;51.024;13.826;2023-01-19T04:18:08;-3.20;99.90
1277;DHT22;631;51.024;13.826;2023-01-19T04:20:34;-3.20;99.90
1277;DHT22;631;51.024;13.826;2023-01-19T04:23:00;-3.30;99.90
1277;DHT22;631;51.024;13.826;2023-01-19T04:25:27;-3.40;99.90
1277;DHT22;631;51.024;13.826;2023-01-19T04:27:53;-3.40;99.90
1277;DHT22;631;51.024;13.826;2023-01-19T04:30:19;-3.40;99.90
1277;DHT22;631;51.024;13.826;2023-01-19T04:32:45;-3.50;99.90
1277;DHT22;631;51.024;13.826;2023-01-19T04:35:11;-3.50;99.90
1277;DHT22;631;51.024;13.826;2023-01-19T04:37:36;-3.50;99.90
1277;DHT22;631;51.024;13.826;2023-01-19T04:40:02;-3.50;99.90
1277;DHT22;631;51.024;13.826;2023-01-19T04:42:28;-3.60;99.90
1277;DHT22;631;51.024;13.826;2023-01-19T04:44:53;-3.60;99.90
1277;DHT22;631;51.024;13.826;2023-01-19T04:47:19;-3.60;99.90
1277;DHT22;631;51.024;13.826;2023-01-19T04:49:45;-3.60;99.90
1277;DHT22;631;51.024;13.826;2023-01-19T04:52:10;-3.60;99.90
1277;DHT22;631;51.024;13.826;2023-01-19T04:54:36;-3.60;99.90
1277;DHT22;631;51.024;13.826;2023-01-19T04:57:01;-3.70;99.90
1277;DHT22;631;51.024;13.826;2023-01-19T04:59:27;-3.70;99.90
1277;DHT22;631;51.024;13.826;2023-01-19T05:01:53;-3.70;99.90
1277;DHT22;631;51.024;13.826;2023-01-19T05:04:18;-3.70;99.90
1277;DHT22;631;51.024;13.826;2023-01-19T05:06:44;-3.80;99.90
1277;DHT22;631;51.024;13.826;2023-01-19T05:09:10;-3.90;99.90
1277;DHT22;631;51.024;13.826;2023-01-19T05:11:37;-3.80;99.90
1277;DHT22;631;51.024;13.826;2023-01-19T05:14:03;-3.80;99.90
1277;DHT22;631;51.024;13.826;2023-01-19T05:16:28;-3.80;99.90
1277;DHT22;631;51.024;13.826;2023-01-19T05:18:54;-3.80;99.90
1277;DHT22;631;51.024;13.826;2023-01-19T05:21:19;-3.90;99.90
1277;DHT22;631;51.024;13.826;2023-01-19T05:23:45;-3.80;99.90
1277;DHT22;631;51.024;13.826;2023-01-19T05:26:11;-3.90;99.90
1277;DHT22;631;51.024;13.826;2023-01-19T05:28:37;-3.90;99.90
1277;DHT22;631;51.024;13.826;2023-01-19T05:31:03;-4.00;99.90
1277;DHT22;631;51.024;13.826;2023-01-19T05:33:28;-4.00;99.90
1277;DHT22;631;51.024;13.826;2023-01-19T05:35:54;-4.00;99.90
1277;DHT22;631;51.024;13.826;2023-01-19T05:38:20;-4.00;99.90
1277;DHT22;631;51.024;13.826;2023-01-19T05:40:46;-4.00;99.90
1277;DHT22;631;51.024;13.826;2023-01-19T05:43:12;-3.90;99.90
1277;DHT22;631;51.024;13.826;2023-01-19T05:45:38;-4.00;99.90
1277;DHT22;631;51.024;13.826;2023-01-19T05:48:04;-4.00;99.90
1277;DHT22;631;51.024;13.826;2023-01-19T05:50:31;-4.00;99.90
1277;DHT22;631;51.024;13.826;2023-01-19T05:52:57;-4.00;99.90
1277;DHT22;631;51.024;13.826;2023-01-19T05:55:24;-4.00;99.90
1277;DHT22;631;51.024;13.826;2023-01-19T05:57:50;-4.00;99.90
1277;DHT22;631;51.024;13.826;2023-01-19T06:00:16;-4.10;99.90
1277;DHT22;631;51.024;13.826;2023-01-19T06:02:41;-4.10;99.90
1277;DHT22;631;51.024;13.826;2023-01-19T06:05:08;-4.10;99.90
1277;DHT22;631;51.024;13.826;2023-01-19T06:07:34;-4.10;99.90
1277;DHT22;631;51.024;13.826;2023-01-19T06:09:59;-4.00;99.90
1277;DHT22;631;51.024;13.826;2023-01-19T06:12:25;-4.00;99.90
1277;DHT22;631;51.024;13.826;2023-01-19T06:14:51;-4.00;99.90
1277;DHT22;631;51.024;13.826;2023-01-19T06:17:17;-3.90;99.90
1277;DHT22;631;51.024;13.826;2023-01-19T06:19:42;-3.90;99.90
1277;DHT22;631;51.024;13.826;2023-01-19T06:22:08;-3.90;99.90
1277;DHT22;631;51.024;13.826;2023-01-19T06:24:34;-3.90;99.90
1277;DHT22;631;51.024;13.826;2023-01-19T06:26:59;-3.90;99.90
1277;DHT22;631;51.024;13.826;2023-01-19T06:29:26;-3.90;99.90
1277;DHT22;631;51.024;13.826;2023-01-19T06:31:52;-4.00;99.90
1277;DHT22;631;51.024;13.826;2023-01-19T06:34:18;-4.00;99.90
1277;DHT22;631;51.024;13.826;2023-01-19T06:36:44;-4.10;99.90
1277;DHT22;631;51.024;13.826;2023-01-19T06:39:11;-4.10;99.90
1277;DHT22;631;51.024;13.826;2023-01-19T06:41:37;-4.20;99.90
1277;DHT22;631;51.024;13.826;2023-01-19T06:44:03;-4.20;99.90
1277;DHT22;631;51.024;13.826;2023-01-19T06:46:29;-4.20;99.90
1277;DHT22;631;51.024;13.826;2023-01-19T06:48:54;-4.20;99.90
1277;DHT22;631;51.024;13.826;2023-01-19T06:51:21;-4.20;99.90
1277;DHT22;631;51.024;13.826;2023-01-19T06:53:47;-4.20;99.90
1277;DHT22;631;51.024;13.826;2023-01-19T06:56:13;-4.30;99.90
1277;DHT22;631;51.024;13.826;2023-01-19T06:58:38;-4.30;99.90
1277;DHT22;631;51.024;13.826;2023-01-19T07:01:05;-4.30;99.90
1277;DHT22;631;51.024;13.826;2023-01-19T07:03:31;-4.40;99.90
1277;DHT22;631;51.024;13.826;2023-01-19T07:05:57;-4.40;99.90
1277;DHT22;631;51.024;13.826;2023-01-19T07:08:27;-4.40;99.90
1277;DHT22;631;51.024;13.826;2023-01-19T07:11:01;-4.40;99.90
1277;DHT22;631;51.024;13.826;2023-01-19T07:13:29;-4.40;99.90
1277;DHT22;631;51.024;13.826;2023-01-19T07:15:55;-4.40;99.90
1277;DHT22;631;51.024;13.826;2023-01-19T07:18:20;-4.40;99.90
1277;DHT22;631;51.024;13.826;2023-01-19T07:20:46;-4.40;99.90
1277;DHT22;631;51.024;13.826;2023-01-19T07:23:14;-4.40;99.90
1277;DHT22;631;51.024;13.826;2023-01-19T07:25:40;-4.40;99.90
1277;DHT22;631;51.024;13.826;2023-01-19T07:28:05;-4.40;99.90
1277;DHT22;631;51.024;13.826;2023-01-19T07:30:31;-4.40;99.90
1277;DHT22;631;51.024;13.826;2023-01-19T07:32:57;-4.40;99.90
1277;DHT22;631;51.024;13.826;2023-01-19T07:35:23;-4.30;99.90
1277;DHT22;631;51.024;13.826;2023-01-19T07:37:49;-4.30;99.90
1277;DHT22;631;51.024;13.826;2023-01-19T07:40:15;-4.20;99.90
1277;DHT22;631;51.024;13.826;2023-01-19T07:42:46;-4.20;99.90
1277;DHT22;631;51.024;13.826;2023-01-19T07:45:13;-4.10;99.90
1277;DHT22;631;51.024;13.826;2023-01-19T07:47:42;-4.10;99.90
1277;DHT22;631;51.024;13.826;2023-01-19T07:50:08;-4.00;99.90
1277;DHT22;631;51.024;13.826;2023-01-19T07:52:34;-4.00;99.90
1277;DHT22;631;51.024;13.826;2023-01-19T07:55:00;-4.00;99.90
1277;DHT22;631;51.024;13.826;2023-01-19T07:57:25;-3.90;99.90
1277;DHT22;631;51.024;13.826;2023-01-19T07:59:51;-3.70;99.90
1277;DHT22;631;51.024;13.826;2023-01-19T08:02:17;-3.60;99.90
1277;DHT22;631;51.024;13.826;2023-01-19T08:04:43;-3.50;99.90
1277;DHT22;631;51.024;13.826;2023-01-19T08:07:09;-3.60;99.90
1277;DHT22;631;51.024;13.826;2023-01-19T08:09:35;-3.40;99.90
1277;DHT22;631;51.024;13.826;2023-01-19T08:12:00;-3.60;99.90
1277;DHT22;631;51.024;13.826;2023-01-19T08:14:26;-3.50;99.90
1277;DHT22;631;51.024;13.826;2023-01-19T08:16:52;-3.30;99.90
1277;DHT22;631;51.024;13.826;2023-01-19T08:19:17;-3.10;99.90
1277;DHT22;631;51.024;13.826;2023-01-19T08:21:43;-3.10;99.90
1277;DHT22;631;51.024;13.826;2023-01-19T08:24:17;-2.90;99.90
1277;DHT22;631;51.024;13.826;2023-01-19T08:26:43;-2.60;99.90
1277;DHT22;631;51.024;13.826;2023-01-19T08:29:09;-2.40;99.90
1277;DHT22;631;51.024;13.826;2023-01-19T08:31:35;-2.10;99.90
1277;DHT22;631;51.024;13.826;2023-01-19T08:34:00;-1.60;99.90
1277;DHT22;631;51.024;13.826;2023-01-19T08:36:26;-1.10;99.90
1277;DHT22;631;51.024;13.826;2023-01-19T08:38:52;-0.70;99.90
1277;DHT22;631;51.024;13.826;2023-01-19T08:41:18;-0.30;99.90
1277;DHT22;631;51.024;13.826;2023-01-19T08:43:43;0.00;99.90
1277;DHT22;631;51.024;13.826;2023-01-19T08:46:10;0.40;99.90
1277;DHT22;631;51.024;13.826;2023-01-19T08:48:36;0.60;99.90
1277;DHT22;631;51.024;13.826;2023-01-19T08:51:01;0.90;99.90
1277;DHT22;631;51.024;13.826;2023-01-19T08:53:27;1.50;99.90
1277;DHT22;631;51.024;13.826;2023-01-19T08:55:54;1.90;99.90
1277;DHT22;631;51.024;13.826;2023-01-19T08:58:22;2.40;99.90
1277;DHT22;631;51.024;13.826;2023-01-19T09:00:47;2.80;99.90
1277;DHT22;631;51.024;13.826;2023-01-19T09:03:13;3.30;99.90
1277;DHT22;631;51.024;13.826;2023-01-19T09:05:39;3.70;99.90
1277;DHT22;631;51.024;13.826;2023-01-19T09:08:10;4.00;99.90
1277;DHT22;631;51.024;13.826;2023-01-19T09:10:38;4.50;99.90
1277;DHT22;631;51.024;13.826;2023-01-19T09:13:06;4.70;97.70
1277;DHT22;631;51.024;13.826;2023-01-19T09:15:36;4.90;98.50
1277;DHT22;631;51.024;13.826;2023-01-19T09:18:03;5.40;96.00
1277;DHT22;631;51.024;13.826;2023-01-19T09:20:29;5.60;95.80
1277;DHT22;631;51.024;13.826;2023-01-19T09:22:59;5.60;95.70
1277;DHT22;631;51.024;13.826;2023-01-19T09:25:25;5.80;93.70
1277;DHT22;631;51.024;13.826;2023-01-19T09:27:51;5.70;93.20
1277;DHT22;631;51.024;13.826;2023-01-19T09:30:17;5.80;93.10
1277;DHT22;631;51.024;13.826;2023-01-19T09:32:44;5.90;92.10
1277;DHT22;631;51.024;13.826;2023-01-19T09:35:10;5.90;92.30
1277;DHT22;631;51.024;13.826;2023-01-19T09:37:35;5.90;92.50
1277;DHT22;631;51.024;13.826;2023-01-19T09:40:02;6.00;91.70
1277;DHT22;631;51.024;13.826;2023-01-19T09:45:03;6.10;90.50
1277;DHT22;631;51.024;13.826;2023-01-19T09:47:32;6.30;88.90
1277;DHT22;631;51.024;13.826;2023-01-19T09:50:08;6.30;90.00
1277;DHT22;631;51.024;13.826;2023-01-19T09:52:36;6.50;89.30
1277;DHT22;631;51.024;13.826;2023-01-19T09:55:21;6.60;89.90
1277;DHT22;631;51.024;13.826;2023-01-19T09:57:47;6.70;88.20
1277;DHT22;631;51.024;13.826;2023-01-19T10:00:16;6.70;84.60
1277;DHT22;631;51.024;13.826;2023-01-19T10:02:45;6.50;83.90
1277;DHT22;631;51.024;13.826;2023-01-19T10:05:37;6.60;87.50
1277;DHT22;631;51.024;13.826;2023-01-19T10:08:24;6.80;86.80
1277;DHT22;631;51.024;13.826;2023-01-19T10:10:56;7.20;87.20
1277;DHT22;631;51.024;13.826;2023-01-19T10:13:42;7.50;85.20
1277;DHT22;631;51.024;13.826;2023-01-19T10:16:40;7.50;80.60
1277;DHT22;631;51.024;13.826;2023-01-19T10:19:24;7.30;80.30
1277;DHT22;631;51.024;13.826;2023-01-19T10:21:52;7.60;80.20
1277;DHT22;631;51.024;13.826;2023-01-19T10:24:25;8.10;73.50
1277;DHT22;631;51.024;13.826;2023-01-19T10:26:53;7.90;72.20
1277;DHT22;631;51.024;13.826;2023-01-19T10:29:30;8.20;71.60
1277;DHT22;631;51.024;13.826;2023-01-19T10:32:19;8.60;70.60
1277;DHT22;631;51.024;13.826;2023-01-19T10:34:46;8.80;67.00
1277;DHT22;631;51.024;13.826;2023-01-19T10:39:51;9.00;68.00
1277;DHT22;631;51.024;13.826;2023-01-19T10:42:18;9.20;65.50
1277;DHT22;631;51.024;13.826;2023-01-19T10:44:44;9.50;63.00
1277;DHT22;631;51.024;13.826;2023-01-19T10:47:19;9.70;60.20
1277;DHT22;631;51.024;13.826;2023-01-19T10:49:46;10.10;59.60
1277;DHT22;631;51.024;13.826;2023-01-19T10:52:32;9.70;57.30
1277;DHT22;631;51.024;13.826;2023-01-19T10:54:59;9.10;59.50
1277;DHT22;631;51.024;13.826;2023-01-19T10:57:41;9.60;63.00
1277;DHT22;631;51.024;13.826;2023-01-19T11:02:53;10.70;58.30
1277;DHT22;631;51.024;13.826;2023-01-19T11:05:27;11.00;54.90
1277;DHT22;631;51.024;13.826;2023-01-19T11:07:53;11.50;55.40
1277;DHT22;631;51.024;13.826;2023-01-19T11:10:22;11.40;51.20
1277;DHT22;631;51.024;13.826;2023-01-19T11:12:55;11.30;50.30
1277;DHT22;631;51.024;13.826;2023-01-19T11:18:01;12.00;50.80
1277;DHT22;631;51.024;13.826;2023-01-19T11:20:51;12.30;48.20
1277;DHT22;631;51.024;13.826;2023-01-19T11:25:48;12.40;46.40
1277;DHT22;631;51.024;13.826;2023-01-19T11:31:15;12.20;45.90
1277;DHT22;631;51.024;13.826;2023-01-19T11:36:32;12.40;44.50
1277;DHT22;631;51.024;13.826;2023-01-19T11:39:00;12.60;46.30
1277;DHT22;631;51.024;13.826;2023-01-19T11:41:38;12.60;44.60
1277;DHT22;631;51.024;13.826;2023-01-19T11:44:33;12.20;44.50
1277;DHT22;631;51.024;13.826;2023-01-19T11:47:03;12.00;45.20
1277;DHT22;631;51.024;13.826;2023-01-19T11:50:00;12.30;46.50
1277;DHT22;631;51.024;13.826;2023-01-19T11:52:43;12.50;46.00
1277;DHT22;631;51.024;13.826;2023-01-19T11:57:46;10.40;48.30
1277;DHT22;631;51.024;13.826;2023-01-19T12:00:32;9.30;50.90
1277;DHT22;631;51.024;13.826;2023-01-19T12:03:22;9.50;54.80
1277;DHT22;631;51.024;13.826;2023-01-19T12:05:51;9.80;55.00
1277;DHT22;631;51.024;13.826;2023-01-19T12:08:25;10.10;55.00
1277;DHT22;631;51.024;13.826;2023-01-19T12:10:55;10.10;51.60
1277;DHT22;631;51.024;13.826;2023-01-19T12:13:26;10.20;52.70
1277;DHT22;631;51.024;13.826;2023-01-19T12:16:03;10.30;52.00
1277;DHT22;631;51.024;13.826;2023-01-19T12:18:37;10.80;51.60
1277;DHT22;631;51.024;13.826;2023-01-19T12:21:04;10.90;50.10
1277;DHT22;631;51.024;13.826;2023-01-19T12:23:50;9.90;50.30
1277;DHT22;631;51.024;13.826;2023-01-19T12:26:42;9.40;54.00
1277;DHT22;631;51.024;13.826;2023-01-19T12:29:14;9.90;55.20
1277;DHT22;631;51.024;13.826;2023-01-19T12:31:41;10.30;52.30
1277;DHT22;631;51.024;13.826;2023-01-19T12:36:59;11.50;47.00
1277;DHT22;631;51.024;13.826;2023-01-19T12:39:25;11.60;45.40
1277;DHT22;631;51.024;13.826;2023-01-19T12:42:13;11.90;42.40
1277;DHT22;631;51.024;13.826;2023-01-19T12:44:40;11.80;44.30
1277;DHT22;631;51.024;13.826;2023-01-19T12:52:19;10.80;51.70
1277;DHT22;631;51.024;13.826;2023-01-19T12:57:57;10.40;49.60
1277;DHT22;631;51.024;13.826;2023-01-19T13:05:48;11.20;48.30
1277;DHT22;631;51.024;13.826;2023-01-19T13:08:16;11.10;48.30
1277;DHT22;631;51.024;13.826;2023-01-19T13:15:52;11.20;48.00
1277;DHT22;631;51.024;13.826;2023-01-19T13:18:33;11.60;48.40
1277;DHT22;631;51.024;13.826;2023-01-19T13:21:05;11.20;48.20
1277;DHT22;631;51.024;13.826;2023-01-19T13:26:16;11.30;49.10
1277;DHT22;631;51.024;13.826;2023-01-19T13:28:43;11.70;48.60
1277;DHT22;631;51.024;13.826;2023-01-19T13:31:11;12.00;47.50
1277;DHT22;631;51.024;13.826;2023-01-19T13:34:12;12.10;47.40
1277;DHT22;631;51.024;13.826;2023-01-19T13:36:43;11.80;44.10
1277;DHT22;631;51.024;13.826;2023-01-19T13:39:38;11.20;42.10
1277;DHT22;631;51.024;13.826;2023-01-19T13:42:08;10.50;41.70
1277;DHT22;631;51.024;13.826;2023-01-19T13:44:41;9.90;43.30
1277;DHT22;631;51.024;13.826;2023-01-19T13:47:14;9.40;43.80
1277;DHT22;631;51.024;13.826;2023-01-19T13:49:44;9.40;46.30
1277;DHT22;631;51.024;13.826;2023-01-19T13:52:15;8.90;44.70
1277;DHT22;631;51.024;13.826;2023-01-19T13:54:52;8.30;47.20
1277;DHT22;631;51.024;13.826;2023-01-19T13:57:59;8.60;47.90
1277;DHT22;631;51.024;13.826;2023-01-19T14:05:30;8.20;48.20
1277;DHT22;631;51.024;13.826;2023-01-19T14:10:58;8.00;48.50
1277;DHT22;631;51.024;13.826;2023-01-19T14:13:30;6.60;49.60
1277;DHT22;631;51.024;13.826;2023-01-19T14:16:04;7.00;52.40
1277;DHT22;631;51.024;13.826;2023-01-19T14:18:32;7.00;52.30
1277;DHT22;631;51.024;13.826;2023-01-19T14:23:51;7.30;53.00
1277;DHT22;631;51.024;13.826;2023-01-19T14:26:46;7.00;52.90
1277;DHT22;631;51.024;13.826;2023-01-19T14:29:26;7.10;54.30
1277;DHT22;631;51.024;13.826;2023-01-19T14:32:14;7.20;54.60
1277;DHT22;631;51.024;13.826;2023-01-19T14:42:25;6.90;55.30
1277;DHT22;631;51.024;13.826;2023-01-19T14:44:54;6.60;54.60
1277;DHT22;631;51.024;13.826;2023-01-19T14:47:41;6.50;56.10
1277;DHT22;631;51.024;13.826;2023-01-19T14:50:16;6.40;58.00
1277;DHT22;631;51.024;13.826;2023-01-19T14:53:04;6.10;57.60
1277;DHT22;631;51.024;13.826;2023-01-19T14:55:32;6.00;59.80
1277;DHT22;631;51.024;13.826;2023-01-19T14:57:59;5.90;63.20
1277;DHT22;631;51.024;13.826;2023-01-19T15:00:25;5.80;61.20
1277;DHT22;631;51.024;13.826;2023-01-19T15:02:51;5.60;65.40
1277;DHT22;631;51.024;13.826;2023-01-19T15:05:17;5.40;66.00
1277;DHT22;631;51.024;13.826;2023-01-19T15:07:44;5.20;68.10
1277;DHT22;631;51.024;13.826;2023-01-19T15:10:21;5.10;69.80
1277;DHT22;631;51.024;13.826;2023-01-19T15:12:51;4.90;72.70
1277;DHT22;631;51.024;13.826;2023-01-19T15:15:21;4.80;72.10
1277;DHT22;631;51.024;13.826;2023-01-19T15:17:50;4.60;78.10
1277;DHT22;631;51.024;13.826;2023-01-19T15:20:19;4.40;80.30
1277;DHT22;631;51.024;13.826;2023-01-19T15:22:45;4.20;79.60
1277;DHT22;631;51.024;13.826;2023-01-19T15:25:16;4.10;81.90
1277;DHT22;631;51.024;13.826;2023-01-19T15:27:43;3.90;84.20
1277;DHT22;631;51.024;13.826;2023-01-19T15:30:17;3.60;83.60
1277;DHT22;631;51.024;13.826;2023-01-19T15:32:43;3.50;85.40
1277;DHT22;631;51.024;13.826;2023-01-19T15:35:18;3.40;89.00
1277;DHT22;631;51.024;13.826;2023-01-19T15:37:44;3.20;87.30
1277;DHT22;631;51.024;13.826;2023-01-19T15:40:11;3.00;90.30
1277;DHT22;631;51.024;13.826;2023-01-19T15:42:37;2.80;91.50
1277;DHT22;631;51.024;13.826;2023-01-19T15:45:30;2.70;92.20
1277;DHT22;631;51.024;13.826;2023-01-19T15:47:56;2.60;92.90
1277;DHT22;631;51.024;13.826;2023-01-19T15:50:23;2.60;92.70
1277;DHT22;631;51.024;13.826;2023-01-19T15:52:49;2.50;92.80
1277;DHT22;631;51.024;13.826;2023-01-19T15:55:14;2.30;93.60
1277;DHT22;631;51.024;13.826;2023-01-19T15:57:40;2.30;94.30
1277;DHT22;631;51.024;13.826;2023-01-19T16:00:07;2.20;94.40
1277;DHT22;631;51.024;13.826;2023-01-19T16:02:35;2.10;96.00
1277;DHT22;631;51.024;13.826;2023-01-19T16:05:01;2.00;95.40
1277;DHT22;631;51.024;13.826;2023-01-19T16:07:27;2.00;95.70
1277;DHT22;631;51.024;13.826;2023-01-19T16:09:52;2.00;94.30
1277;DHT22;631;51.024;13.826;2023-01-19T16:12:18;1.90;96.00
1277;DHT22;631;51.024;13.826;2023-01-19T16:14:43;1.80;95.00
1277;DHT22;631;51.024;13.826;2023-01-19T16:17:09;1.80;95.00
1277;DHT22;631;51.024;13.826;2023-01-19T16:19:35;1.90;94.40
1277;DHT22;631;51.024;13.826;2023-01-19T16:22:01;1.90;95.30
1277;DHT22;631;51.024;13.826;2023-01-19T16:24:27;1.90;95.40
1277;DHT22;631;51.024;13.826;2023-01-19T16:26:53;1.90;95.10
1277;DHT22;631;51.024;13.826;2023-01-19T16:29:18;1.90;95.80
1277;DHT22;631;51.024;13.826;2023-01-19T16:31:44;1.90;95.80
1277;DHT22;631;51.024;13.826;2023-01-19T16:34:10;1.90;96.00
1277;DHT22;631;51.024;13.826;2023-01-19T16:36:37;1.90;96.00
1277;DHT22;631;51.024;13.826;2023-01-19T16:39:10;1.90;96.00
1277;DHT22;631;51.024;13.826;2023-01-19T16:41:37;1.90;96.00
1277;DHT22;631;51.024;13.826;2023-01-19T16:44:03;1.90;95.80
1277;DHT22;631;51.024;13.826;2023-01-19T16:46:32;1.90;95.80
1277;DHT22;631;51.024;13.826;2023-01-19T16:49:04;2.00;95.80
1277;DHT22;631;51.024;13.826;2023-01-19T16:51:30;1.90;96.40
1277;DHT22;631;51.024;13.826;2023-01-19T16:53:56;1.90;96.90
1277;DHT22;631;51.024;13.826;2023-01-19T16:56:22;1.80;97.00
1277;DHT22;631;51.024;13.826;2023-01-19T16:58:51;1.80;96.90
1277;DHT22;631;51.024;13.826;2023-01-19T17:01:18;1.90;96.60
1277;DHT22;631;51.024;13.826;2023-01-19T17:03:44;2.00;95.90
1277;DHT22;631;51.024;13.826;2023-01-19T17:06:12;2.00;95.20
1277;DHT22;631;51.024;13.826;2023-01-19T17:08:37;2.00;95.30
1277;DHT22;631;51.024;13.826;2023-01-19T17:11:09;2.00;95.50
1277;DHT22;631;51.024;13.826;2023-01-19T17:13:34;2.00;95.50
1277;DHT22;631;51.024;13.826;2023-01-19T17:16:01;2.00;95.50
1277;DHT22;631;51.024;13.826;2023-01-19T17:18:27;2.00;96.60
1277;DHT22;631;51.024;13.826;2023-01-19T17:20:53;2.10;97.60
1277;DHT22;631;51.024;13.826;2023-01-19T17:23:19;1.90;97.40
1277;DHT22;631;51.024;13.826;2023-01-19T17:25:52;2.00;97.20
1277;DHT22;631;51.024;13.826;2023-01-19T17:28:18;2.00;97.70
1277;DHT22;631;51.024;13.826;2023-01-19T17:30:43;2.00;98.30
1277;DHT22;631;51.024;13.826;2023-01-19T17:33:09;2.00;98.90
1277;DHT22;631;51.024;13.826;2023-01-19T17:35:34;1.90;99.40
1277;DHT22;631;51.024;13.826;2023-01-19T17:38:00;1.90;99.50
1277;DHT22;631;51.024;13.826;2023-01-19T17:40:26;1.80;99.20
1277;DHT22;631;51.024;13.826;2023-01-19T17:42:51;1.80;99.90